Time;durP1;ratioP1;P1;durP2;ratioP2;P2;SDS_P1;SDS_P2;PMS_P1;PMS_P2;Temp;Humidity;BMP_temperature;BMP_pressure;BME280_temperature;BME280_humidity;BME280_pressure;Samples;Min_cycle;Max_cycle;Signal;HPM_P1;HPM_P2
2023/05/17 00:01:43;;;;;;;6.70;4.80;;;;;;;17.78;42.23;100599.66;108164;1287;22000;-58
2023/05/17 00:04:09;;;;;;;6.60;5.00;;;;;;;17.76;42.22;100597.44;108168;1287;21992;-57
2023/05/17 00:06:35;;;;;;;6.80;4.90;;;;;;;17.73;42.24;100598.96;108148;1287;21991;-57
2023/05/17 00:09:01;;;;;;;7.90;5.40;;;;;;;17.68;42.25;100597.54;108159;1287;21993;-57
2023/05/17 00:11:27;;;;;;;8.50;5.00;;;;;;;17.64;42.27;100600.34;108140;1287;22001;-59
2023/05/17 00:13:53;;;;;;;9.90;5.30;;;;;;;17.60;42.26;100607.80;108160;1287;22041;-57
2023/05/17 00:16:19;;;;;;;9.50;5.50;;;;;;;17.52;42.25;100609.17;108131;1287;21986;-58
2023/05/17 00:18:44;;;;;;;7.40;4.50;;;;;;;17.44;42.29;100610.69;108137;1287;22000;-57
2023/05/17 00:21:10;;;;;;;6.10;3.90;;;;;;;17.38;42.27;100611.98;108126;1287;21987;-57
2023/05/17 00:23:36;;;;;;;7.30;4.90;;;;;;;17.37;42.38;100609.70;108179;1287;21987;-58
2023/05/17 00:26:01;;;;;;;10.50;4.70;;;;;;;17.38;42.51;100606.84;108129;1287;21994;-60
2023/05/17 00:28:27;;;;;;;11.00;4.70;;;;;;;17.38;42.46;100604.00;108214;1287;21987;-58
2023/05/17 00:30:53;;;;;;;7.20;5.00;;;;;;;17.35;42.49;100600.91;108158;1287;21989;-59
2023/05/17 00:33:18;;;;;;;7.70;5.10;;;;;;;17.32;42.42;100605.10;108126;1287;21989;-58
2023/05/17 00:35:44;;;;;;;8.00;5.60;;;;;;;17.29;42.48;100603.63;108135;1287;21989;-56
2023/05/17 00:38:09;;;;;;;7.70;5.10;;;;;;;17.25;42.46;100603.75;108117;1287;21999;-58
2023/05/17 00:40:36;;;;;;;9.20;4.80;;;;;;;17.20;42.56;100602.52;108120;1287;21953;-58
2023/05/17 00:43:01;;;;;;;5.70;4.10;;;;;;;17.17;42.54;100600.14;108109;1287;21993;-57
2023/05/17 00:45:27;;;;;;;8.30;5.00;;;;;;;17.15;42.70;100599.51;108204;1287;23053;-58
2023/05/17 00:47:53;;;;;;;7.20;4.80;;;;;;;17.14;42.79;100599.40;108219;1287;21987;-58
2023/05/17 00:50:18;;;;;;;8.20;5.20;;;;;;;17.13;42.83;100595.13;108124;1287;21975;-56
2023/05/17 00:52:45;;;;;;;8.50;5.60;;;;;;;17.13;42.87;100595.31;107847;1287;22026;-59
2023/05/17 00:55:10;;;;;;;8.10;5.30;;;;;;;17.13;42.93;100591.07;108138;1287;21982;-57
2023/05/17 00:57:36;;;;;;;9.50;5.30;;;;;;;17.10;42.86;100590.84;108150;1287;21990;-58
2023/05/17 01:00:02;;;;;;;7.70;4.60;;;;;;;17.04;42.84;100589.61;108179;1287;21990;-58
2023/05/17 01:02:28;;;;;;;8.80;4.30;;;;;;;17.00;43.04;100590.12;108152;1287;22012;-58
2023/05/17 01:04:54;;;;;;;7.30;5.00;;;;;;;16.96;43.09;100588.64;108150;1287;21993;-57
2023/05/17 01:07:19;;;;;;;7.90;4.90;;;;;;;16.94;43.14;100585.87;108135;1287;21969;-58
2023/05/17 01:09:46;;;;;;;7.80;5.40;;;;;;;16.91;43.11;100584.36;108227;1287;21994;-58
2023/05/17 01:12:24;;;;;;;8.40;5.50;;;;;;;16.89;43.11;100584.09;107989;1287;22005;-58
2023/05/17 01:15:06;;;;;;;6.90;4.90;;;;;;;16.88;43.18;100583.22;108123;1287;21995;-57
2023/05/17 01:17:57;;;;;;;5.40;4.60;;;;;;;16.86;43.22;100583.85;107927;1289;21983;-57
2023/05/17 01:20:36;;;;;;;6.90;3.70;;;;;;;16.85;43.28;100582.11;108090;1289;21992;-58
2023/05/17 01:23:21;;;;;;;6.10;3.80;;;;;;;16.86;43.26;100580.64;107372;1289;1003170;-58
2023/05/17 01:25:54;;;;;;;6.60;4.70;;;;;;;16.89;43.27;100580.20;108097;1288;22006;-58
2023/05/17 01:28:21;;;;;;;5.80;4.00;;;;;;;16.90;43.23;100578.91;108110;1287;21993;-57
2023/05/17 01:30:50;;;;;;;8.70;4.90;;;;;;;16.88;43.28;100577.73;108069;1287;22105;-58
2023/05/17 01:33:16;;;;;;;8.70;5.10;;;;;;;16.86;43.32;100580.64;108162;1287;21997;-57
2023/05/17 01:35:42;;;;;;;7.70;5.70;;;;;;;16.86;43.29;100580.66;108130;1287;22024;-57
2023/05/17 01:38:08;;;;;;;7.00;4.60;;;;;;;16.85;43.39;100583.33;108075;1289;22098;-58
2023/05/17 01:40:35;;;;;;;5.80;4.20;;;;;;;16.86;43.35;100581.89;108079;1289;21997;-57
2023/05/17 01:43:07;;;;;;;6.40;3.40;;;;;;;16.87;43.41;100582.04;108112;1289;23750;-57
2023/05/17 01:45:43;;;;;;;8.10;4.50;;;;;;;16.91;43.29;100581.18;108127;1288;23163;-57
2023/05/17 01:48:30;;;;;;;6.10;4.50;;;;;;;16.94;43.41;100576.80;107959;1287;22022;-58
2023/05/17 01:50:56;;;;;;;9.10;4.80;;;;;;;16.98;43.45;100571.42;106665;1287;1002922;-58
2023/05/17 01:53:29;;;;;;;8.90;5.10;;;;;;;17.00;43.42;100572.20;107992;1287;22742;-58
2023/05/17 01:56:07;;;;;;;8.70;5.40;;;;;;;17.02;43.44;100569.47;108074;1287;22001;-58
2023/05/17 01:58:44;;;;;;;9.10;4.80;;;;;;;17.02;43.47;100568.92;108104;1288;23058;-57
2023/05/17 02:01:10;;;;;;;6.60;4.30;;;;;;;17.05;43.50;100571.48;106929;1288;1003883;-58
2023/05/17 02:03:36;;;;;;;7.80;4.50;;;;;;;17.09;43.46;100573.48;107905;1289;22008;-58
2023/05/17 02:06:02;;;;;;;6.50;4.30;;;;;;;17.14;43.47;100574.72;108085;1289;22001;-58
2023/05/17 02:08:28;;;;;;;10.10;5.10;;;;;;;17.19;43.50;100569.91;108063;1287;22003;-58
2023/05/17 02:10:53;;;;;;;7.70;5.00;;;;;;;17.23;43.55;100567.28;108094;1287;21992;-60
2023/05/17 02:13:19;;;;;;;8.00;5.30;;;;;;;17.28;43.57;100564.13;108037;1288;22024;-58
2023/05/17 02:15:45;;;;;;;6.90;5.20;;;;;;;17.31;43.52;100562.77;108055;1288;21988;-59
2023/05/17 02:18:11;;;;;;;8.00;5.40;;;;;;;17.35;43.51;100560.83;108039;1288;21977;-58
2023/05/17 02:20:37;;;;;;;15.90;5.70;;;;;;;17.38;43.56;100561.61;108065;1289;21998;-58
2023/05/17 02:23:03;;;;;;;9.10;5.00;;;;;;;17.42;43.60;100560.22;108058;1283;22028;-57
2023/05/17 02:25:28;;;;;;;9.50;4.10;;;;;;;17.46;43.64;100558.64;108042;1287;21996;-58
2023/05/17 02:27:54;;;;;;;7.80;4.20;;;;;;;17.51;43.71;100556.52;108053;1287;21988;-60
2023/05/17 02:30:21;;;;;;;8.00;4.20;;;;;;;17.54;43.67;100554.59;108046;1287;21989;-58
2023/05/17 02:32:47;;;;;;;12.50;4.20;;;;;;;17.60;43.71;100553.52;108097;1283;22026;-58
2023/05/17 02:35:14;;;;;;;7.80;4.10;;;;;;;17.64;43.78;100553.52;108092;1287;22016;-58
2023/05/17 02:37:40;;;;;;;8.40;4.20;;;;;;;17.68;43.78;100552.63;108071;1287;21998;-57
2023/05/17 02:40:08;;;;;;;8.80;4.50;;;;;;;17.73;43.83;100553.71;108041;1287;21997;-59
2023/05/17 02:42:35;;;;;;;6.30;4.20;;;;;;;17.77;43.76;100556.56;108106;1287;21987;-57
2023/05/17 02:45:01;;;;;;;9.20;3.90;;;;;;;17.81;43.77;100555.87;108051;1281;22005;-58
2023/05/17 02:47:26;;;;;;;8.10;3.90;;;;;;;17.86;43.75;100552.84;108061;1287;21996;-58
2023/05/17 02:49:52;;;;;;;5.40;3.50;;;;;;;17.92;43.77;100553.67;108026;1287;22002;-59
2023/05/17 02:52:18;;;;;;;9.50;4.30;;;;;;;17.98;43.79;100555.56;108071;1287;21985;-59
2023/05/17 02:54:43;;;;;;;10.20;4.30;;;;;;;18.05;43.82;100557.59;108185;1283;22000;-58
2023/05/17 02:57:09;;;;;;;5.90;4.00;;;;;;;18.13;43.69;100561.36;108108;1287;21989;-57
2023/05/17 02:59:35;;;;;;;5.00;3.70;;;;;;;18.21;43.68;100560.55;108180;1287;21993;-57
2023/05/17 03:02:01;;;;;;;6.80;3.60;;;;;;;18.27;43.75;100558.83;108157;1287;22169;-59
2023/05/17 03:04:26;;;;;;;12.50;4.40;;;;;;;18.35;43.65;100560.28;108133;1288;21988;-58
2023/05/17 03:06:52;;;;;;;7.30;4.10;;;;;;;18.42;43.72;100559.83;108098;1288;22014;-59
2023/05/17 03:09:18;;;;;;;7.50;3.40;;;;;;;18.49;43.72;100558.46;108099;1288;21988;-57
2023/05/17 03:11:45;;;;;;;7.80;3.70;;;;;;;18.58;43.77;100558.97;108124;1288;22000;-57
2023/05/17 03:14:11;;;;;;;11.30;4.10;;;;;;;18.68;43.79;100559.25;108189;1287;21984;-58
2023/05/17 03:16:37;;;;;;;5.60;3.20;;;;;;;18.79;43.72;100560.37;108113;1288;22003;-58
2023/05/17 03:19:03;;;;;;;6.80;4.80;;;;;;;18.90;43.69;100558.16;108129;1288;21999;-58
2023/05/17 03:21:28;;;;;;;17.70;5.60;;;;;;;18.98;43.67;100558.16;108211;1287;21994;-59
2023/05/17 03:23:54;;;;;;;13.50;4.40;;;;;;;19.08;43.72;100558.08;108279;1287;21989;-59
2023/05/17 03:26:20;;;;;;;11.70;4.10;;;;;;;19.17;43.71;100558.20;108213;1287;22001;-57
2023/05/17 03:28:45;;;;;;;10.30;4.60;;;;;;;19.26;43.57;100551.37;108263;1287;21978;-59
2023/05/17 03:31:11;;;;;;;12.80;5.10;;;;;;;19.36;43.57;100550.42;108296;1287;21981;-59
2023/05/17 03:33:37;;;;;;;11.70;3.90;;;;;;;19.44;43.49;100547.91;107999;1287;22026;-59
2023/05/17 03:36:03;;;;;;;12.60;3.90;;;;;;;19.52;43.43;100548.23;108151;1287;21989;-58
2023/05/17 03:38:30;;;;;;;13.50;3.50;;;;;;;19.59;43.32;100549.50;108138;1287;21982;-56
2023/05/17 03:40:56;;;;;;;9.90;3.60;;;;;;;19.68;43.27;100551.20;108120;1287;22025;-56
2023/05/17 03:43:21;;;;;;;9.40;3.70;;;;;;;19.78;43.14;100554.31;107850;1288;22028;-56
2023/05/17 03:45:47;;;;;;;7.40;3.80;;;;;;;19.87;43.06;100553.73;108092;1288;22012;-58
2023/05/17 03:48:13;;;;;;;5.70;3.70;;;;;;;19.95;42.97;100553.54;108129;1288;21988;-56
2023/05/17 03:50:39;;;;;;;11.60;4.20;;;;;;;20.04;42.97;100555.05;108146;1287;21986;-56
2023/05/17 03:53:06;;;;;;;14.00;4.70;;;;;;;20.13;42.84;100555.66;108118;1287;21989;-58
2023/05/17 03:55:32;;;;;;;18.20;4.00;;;;;;;20.23;42.88;100549.69;108177;1287;21989;-59
2023/05/17 03:57:57;;;;;;;16.30;4.10;;;;;;;20.33;42.90;100549.55;108185;1287;21992;-58
2023/05/17 04:00:23;;;;;;;10.50;3.90;;;;;;;20.44;43.07;100548.80;108147;1287;23666;-58
2023/05/17 04:02:49;;;;;;;7.70;3.50;;;;;;;20.58;43.02;100548.11;108083;1288;21999;-59
2023/05/17 04:05:15;;;;;;;7.40;3.50;;;;;;;20.73;43.29;100549.29;108186;1288;21988;-59
2023/05/17 04:07:41;;;;;;;8.80;3.90;;;;;;;20.90;43.21;100542.38;108115;1285;21994;-59
2023/05/17 04:10:07;;;;;;;7.70;3.40;;;;;;;21.07;43.18;100542.16;108053;1287;22005;-56
2023/05/17 04:12:33;;;;;;;7.00;3.60;;;;;;;21.24;43.12;100540.71;108101;1287;22000;-59
2023/05/17 04:15:00;;;;;;;9.00;3.60;;;;;;;21.44;43.06;100539.30;108117;1287;22023;-56
2023/05/17 04:17:26;;;;;;;5.50;3.00;;;;;;;21.64;43.20;100538.77;108100;1287;21999;-59
2023/05/17 04:19:52;;;;;;;7.20;3.10;;;;;;;21.83;43.10;100537.88;108103;1287;22461;-59
2023/05/17 04:22:19;;;;;;;6.50;3.10;;;;;;;22.03;42.93;100539.26;108115;1287;21990;-57
2023/05/17 04:24:45;;;;;;;5.10;3.30;;;;;;;22.22;42.72;100542.60;108092;1287;21998;-58
2023/05/17 04:27:10;;;;;;;4.30;3.20;;;;;;;22.41;42.35;100538.65;108107;1284;22007;-60
2023/05/17 04:29:36;;;;;;;5.00;2.40;;;;;;;22.60;42.24;100541.48;108138;1287;22000;-58
2023/05/17 04:32:02;;;;;;;6.20;3.00;;;;;;;22.77;42.08;100544.04;108071;1287;21992;-60
2023/05/17 04:34:28;;;;;;;7.20;2.60;;;;;;;22.92;41.92;100547.40;108064;1287;21989;-55
2023/05/17 04:36:54;;;;;;;7.20;3.10;;;;;;;23.06;41.79;100550.14;108078;1287;21990;-59
2023/05/17 04:39:19;;;;;;;4.70;2.60;;;;;;;23.17;41.40;100551.58;108032;1287;22029;-56
2023/05/17 04:41:45;;;;;;;3.00;2.40;;;;;;;23.28;41.23;100545.79;108134;1287;21996;-59
2023/05/17 04:44:11;;;;;;;5.10;2.70;;;;;;;23.37;40.91;100542.69;108108;1287;21986;-57
2023/05/17 04:46:37;;;;;;;5.90;2.70;;;;;;;23.46;40.68;100544.29;108082;1287;21991;-60
2023/05/17 04:49:03;;;;;;;4.60;2.80;;;;;;;23.54;40.52;100546.80;108181;1287;22006;-57
2023/05/17 04:51:29;;;;;;;4.40;2.80;;;;;;;23.64;40.38;100548.14;108136;1287;22452;-57
2023/05/17 04:53:55;;;;;;;3.80;2.60;;;;;;;23.73;40.27;100551.14;108062;1287;22007;-60
2023/05/17 04:56:21;;;;;;;7.10;2.80;;;;;;;23.81;40.17;100550.31;108104;1287;22002;-57
2023/05/17 04:58:47;;;;;;;5.30;2.70;;;;;;;23.89;40.13;100550.27;108118;1288;21987;-58
2023/05/17 05:01:13;;;;;;;6.10;2.60;;;;;;;23.99;39.92;100555.04;108114;1288;21956;-56
2023/05/17 05:03:38;;;;;;;3.90;2.40;;;;;;;24.08;39.88;100555.52;108112;1288;22571;-59
2023/05/17 05:06:04;;;;;;;4.40;2.50;;;;;;;24.17;39.76;100557.25;108129;1288;21988;-56
2023/05/17 05:08:31;;;;;;;9.40;3.00;;;;;;;24.27;39.70;100558.98;108168;1287;21989;-59
2023/05/17 05:10:57;;;;;;;12.10;2.90;;;;;;;24.38;39.79;100560.55;108103;1288;21992;-57
2023/05/17 05:13:23;;;;;;;11.20;3.10;;;;;;;24.52;39.71;100554.05;108077;1288;21993;-56
2023/05/17 05:15:49;;;;;;;12.30;3.00;;;;;;;24.67;39.70;100557.66;108123;1287;21987;-57
2023/05/17 05:18:15;;;;;;;5.00;2.50;;;;;;;24.85;39.64;100558.12;108234;1287;22265;-56
2023/05/17 05:20:42;;;;;;;5.10;2.60;;;;;;;25.04;39.59;100557.31;108104;1287;22160;-59
2023/05/17 05:23:07;;;;;;;9.50;3.10;;;;;;;25.24;39.42;100560.58;108135;1288;23896;-58
2023/05/17 05:25:33;;;;;;;4.90;2.60;;;;;;;25.41;39.42;100566.00;108087;1288;22004;-58
2023/05/17 05:27:59;;;;;;;5.30;2.60;;;;;;;25.63;39.44;100567.17;108104;1287;21985;-59
2023/05/17 05:30:24;;;;;;;4.10;2.70;;;;;;;25.86;39.54;100562.82;108128;1287;21996;-58
2023/05/17 05:32:50;;;;;;;6.00;2.90;;;;;;;26.10;39.39;100564.48;108133;1287;21996;-59
2023/05/17 05:35:16;;;;;;;5.10;2.70;;;;;;;26.37;39.36;100567.33;108092;1287;21988;-58
2023/05/17 05:37:42;;;;;;;7.60;3.20;;;;;;;26.66;39.25;100567.23;108073;1288;21964;-59
2023/05/17 05:40:09;;;;;;;4.30;2.70;;;;;;;26.97;39.07;100564.04;107900;1288;21984;-58
2023/05/17 05:42:36;;;;;;;5.70;2.80;;;;;;;27.25;38.83;100562.54;108149;1288;21982;-58
2023/05/17 05:45:02;;;;;;;7.50;3.00;;;;;;;27.51;38.68;100562.25;108132;1284;21975;-59
2023/05/17 05:47:28;;;;;;;4.80;2.40;;;;;;;27.78;38.48;100564.98;108260;1287;21986;-59
2023/05/17 05:49:54;;;;;;;6.60;2.70;;;;;;;28.02;38.27;100560.64;108225;1287;22026;-59
2023/05/17 05:52:19;;;;;;;5.30;2.90;;;;;;;28.23;38.08;100560.78;108144;1287;22402;-60
2023/05/17 05:54:45;;;;;;;7.00;2.80;;;;;;;28.40;37.87;100559.84;108103;1287;21993;-59
2023/05/17 05:57:11;;;;;;;5.70;2.80;;;;;;;28.57;37.48;100556.64;108061;1288;22000;-60
2023/05/17 05:59:37;;;;;;;6.40;3.10;;;;;;;28.70;37.26;100560.20;108088;1288;21998;-59
2023/05/17 06:02:03;;;;;;;5.00;2.40;;;;;;;28.80;36.99;100560.86;108074;1288;21993;-59
2023/05/17 06:04:29;;;;;;;7.70;2.90;;;;;;;28.88;37.14;100560.67;108108;1287;22026;-57
2023/05/17 06:06:54;;;;;;;4.90;3.00;;;;;;;28.99;36.92;100561.94;108058;1287;21990;-58
2023/05/17 06:09:20;;;;;;;5.80;2.30;;;;;;;29.04;36.82;100561.59;108087;1288;21990;-58
2023/05/17 06:11:46;;;;;;;6.10;2.80;;;;;;;29.08;36.43;100562.22;108062;1288;21992;-58
2023/05/17 06:14:11;;;;;;;4.60;2.70;;;;;;;29.10;36.42;100562.77;108068;1288;22000;-58
2023/05/17 06:16:37;;;;;;;5.30;2.70;;;;;;;29.11;36.41;100561.98;108063;1288;21995;-58
2023/05/17 06:19:03;;;;;;;4.30;2.70;;;;;;;29.18;36.38;100565.17;108082;1288;21995;-57
2023/05/17 06:21:30;;;;;;;4.60;2.60;;;;;;;29.33;36.43;100565.23;107842;1288;22028;-59
2023/05/17 06:23:56;;;;;;;5.60;2.60;;;;;;;29.58;36.65;100563.83;108125;1287;23668;-58
2023/05/17 06:26:22;;;;;;;4.50;3.00;;;;;;;29.85;36.50;100567.87;108106;1287;22162;-59
2023/05/17 06:28:47;;;;;;;4.40;2.80;;;;;;;30.16;36.41;100563.27;108102;1287;21992;-58
2023/05/17 06:31:13;;;;;;;7.00;2.40;;;;;;;30.47;36.12;100567.67;108132;1287;22452;-60
2023/05/17 06:33:38;;;;;;;7.00;2.80;;;;;;;30.76;35.58;100566.38;108115;1287;21986;-59
2023/05/17 06:36:05;;;;;;;4.20;2.40;;;;;;;31.03;35.40;100563.47;108096;1287;23744;-59
2023/05/17 06:38:31;;;;;;;7.30;2.70;;;;;;;31.27;35.07;100563.04;108142;1287;21996;-59
2023/05/17 06:40:57;;;;;;;6.20;3.10;;;;;;;31.51;35.22;100565.05;108084;1287;21985;-58
2023/05/17 06:43:22;;;;;;;6.60;3.20;;;;;;;31.77;34.89;100563.21;108123;1287;21989;-59
2023/05/17 06:45:48;;;;;;;6.20;3.10;;;;;;;32.05;34.17;100560.84;108109;1287;21993;-59
2023/05/17 06:48:14;;;;;;;7.70;2.90;;;;;;;32.17;33.47;100556.95;108103;1287;23777;-59
2023/05/17 06:50:40;;;;;;;5.30;2.50;;;;;;;32.30;33.91;100558.17;108083;1287;22148;-61
2023/05/17 06:53:05;;;;;;;9.80;2.70;;;;;;;32.45;33.58;100559.36;108102;1287;22029;-58
2023/05/17 06:55:31;;;;;;;7.50;3.10;;;;;;;32.55;33.60;100558.56;108167;1287;21988;-59
2023/05/17 06:57:58;;;;;;;7.00;2.90;;;;;;;32.66;33.57;100562.86;108134;1287;21990;-58
2023/05/17 07:00:24;;;;;;;6.10;3.10;;;;;;;32.74;33.53;100564.75;108126;1287;21997;-58
2023/05/17 07:02:50;;;;;;;5.30;2.70;;;;;;;32.80;33.37;100563.98;108078;1287;22057;-60
2023/05/17 07:05:16;;;;;;;6.00;3.00;;;;;;;32.82;33.20;100561.61;108078;1287;21989;-58
2023/05/17 07:07:43;;;;;;;10.90;3.30;;;;;;;32.84;33.12;100563.25;108140;1287;21990;-59
2023/05/17 07:10:09;;;;;;;8.80;3.90;;;;;;;32.91;33.20;100565.44;108080;1287;22442;-60
2023/05/17 07:12:35;;;;;;;5.30;3.30;;;;;;;33.05;33.04;100566.84;108101;1288;22044;-59
2023/05/17 07:15:01;;;;;;;5.70;3.00;;;;;;;33.18;32.97;100567.27;108111;1288;21989;-58
2023/05/17 07:17:27;;;;;;;6.90;3.60;;;;;;;33.30;32.67;100568.60;108053;1288;22010;-60
2023/05/17 07:19:53;;;;;;;5.10;3.10;;;;;;;33.36;32.67;100564.83;108110;1288;22003;-59
2023/05/17 07:22:19;;;;;;;8.20;3.00;;;;;;;33.36;32.52;100565.52;108053;1288;22049;-58
2023/05/17 07:24:45;;;;;;;5.00;3.20;;;;;;;33.29;32.57;100566.48;108089;1287;22458;-59
2023/05/17 07:27:11;;;;;;;4.90;2.80;;;;;;;33.28;32.42;100563.73;108117;1287;21989;-60
2023/05/17 07:29:36;;;;;;;6.40;3.20;;;;;;;33.38;32.53;100566.34;108177;1287;21999;-58
2023/05/17 07:32:02;;;;;;;6.70;3.30;;;;;;;33.56;32.75;100566.55;108095;1287;21992;-58
2023/05/17 07:34:31;;;;;;;7.50;3.50;;;;;;;33.79;31.09;100571.05;108139;1287;21989;-59
2023/05/17 07:36:57;;;;;;;6.80;3.40;;;;;;;33.83;29.54;100574.85;108104;1288;22006;-59
2023/05/17 07:39:22;;;;;;;8.10;3.00;;;;;;;33.81;29.75;100575.66;108091;1288;22265;-59
2023/05/17 07:41:48;;;;;;;5.80;3.60;;;;;;;33.93;29.61;100573.23;108085;1287;21992;-60
2023/05/17 07:44:14;;;;;;;5.00;3.30;;;;;;;34.06;28.92;100572.89;108102;1288;21990;-59
2023/05/17 07:46:40;;;;;;;6.70;3.60;;;;;;;34.14;28.82;100574.42;108111;1287;22474;-61
2023/05/17 07:49:05;;;;;;;8.30;3.90;;;;;;;34.20;29.45;100571.73;108104;1287;21986;-60
2023/05/17 07:51:32;;;;;;;5.90;3.60;;;;;;;34.26;29.06;100576.34;108144;1287;21991;-59
2023/05/17 07:53:57;;;;;;;9.40;3.10;;;;;;;34.23;28.30;100576.65;108111;1287;22029;-60
2023/05/17 07:56:23;;;;;;;9.90;3.30;;;;;;;34.20;28.95;100573.55;108120;1287;22222;-61
2023/05/17 07:58:49;;;;;;;5.50;2.90;;;;;;;34.33;28.17;100572.31;108129;1287;21986;-59
2023/05/17 08:01:15;;;;;;;4.80;2.30;;;;;;;34.46;28.45;100571.96;108132;1287;21989;-59
2023/05/17 08:03:46;;;;;;;4.90;2.60;;;;;;;34.67;28.50;100578.38;108104;1287;22024;-59
2023/05/17 08:06:15;;;;;;;7.90;3.10;;;;;;;34.74;26.80;100579.63;108151;1287;21977;-59
2023/05/17 08:08:41;;;;;;;5.40;2.70;;;;;;;34.65;27.37;100578.82;108142;1287;21992;-60
2023/05/17 08:11:06;;;;;;;6.50;2.50;;;;;;;34.60;26.61;100580.85;108125;1287;21986;-60
2023/05/17 08:13:32;;;;;;;5.40;2.80;;;;;;;34.51;27.16;100581.27;108209;1287;21984;-61
2023/05/17 08:16:02;;;;;;;4.90;2.70;;;;;;;34.59;27.39;100581.15;108123;1287;21989;-61
2023/05/17 08:18:30;;;;;;;8.10;2.80;;;;;;;34.71;27.34;100584.01;108118;1287;22022;-59
2023/05/17 08:20:56;;;;;;;4.30;2.70;;;;;;;34.87;27.05;100583.84;108120;1287;21992;-60
2023/05/17 08:23:22;;;;;;;7.40;2.70;;;;;;;35.03;27.10;100583.11;108051;1288;22003;-59
2023/05/17 08:25:48;;;;;;;5.10;2.50;;;;;;;35.19;27.31;100580.10;108093;1288;21987;-59
2023/05/17 08:28:13;;;;;;;6.80;2.80;;;;;;;35.41;27.59;100580.88;108095;1287;22024;-59
2023/05/17 08:30:40;;;;;;;7.40;3.00;;;;;;;35.64;26.79;100576.45;108086;1287;22047;-60
2023/05/17 08:33:08;;;;;;;5.30;2.40;;;;;;;35.80;26.97;100578.71;108066;1287;21996;-59
2023/05/17 08:35:34;;;;;;;9.20;2.40;;;;;;;35.93;26.65;100582.71;107830;1288;21992;-60
2023/05/17 08:38:00;;;;;;;4.90;2.30;;;;;;;35.83;24.76;100585.47;108092;1288;23724;-59
2023/05/17 08:40:26;;;;;;;6.60;2.20;;;;;;;35.47;23.69;100587.45;108122;1287;21997;-59
2023/05/17 08:42:52;;;;;;;4.20;2.30;;;;;;;34.97;22.61;100590.91;108144;1287;21992;-60
2023/05/17 08:45:18;;;;;;;6.60;1.90;;;;;;;34.54;23.32;100583.16;108143;1287;23033;-60
2023/05/17 08:47:45;;;;;;;6.00;2.40;;;;;;;34.17;23.02;100588.95;108107;1288;21996;-60
2023/05/17 08:50:11;;;;;;;7.00;2.30;;;;;;;33.87;22.88;100590.96;108101;1287;22456;-61
2023/05/17 08:52:39;;;;;;;5.80;2.60;;;;;;;33.65;23.09;100590.36;108471;1280;23148;-60
2023/05/17 08:55:07;;;;;;;20.40;3.10;;;;;;;33.51;22.72;100590.08;107994;1287;151601;-60
2023/05/17 08:57:37;;;;;;;4.20;2.10;;;;;;;33.50;22.52;100589.42;108183;1287;23345;-61
2023/05/17 09:00:11;;;;;;;5.10;2.50;;;;;;;33.60;22.95;100586.70;108133;1287;21980;-60
2023/05/17 09:02:37;;;;;;;5.30;2.20;;;;;;;33.71;22.67;100584.48;108164;1276;23725;-60
2023/05/17 09:05:04;;;;;;;4.10;2.30;;;;;;;33.81;23.39;100581.70;108017;1288;21994;-61
2023/05/17 09:07:29;;;;;;;3.70;2.10;;;;;;;34.08;24.05;100577.63;107874;1288;21999;-61
2023/05/17 09:09:55;;;;;;;4.80;2.50;;;;;;;34.41;23.40;100578.48;108154;1287;21987;-60
2023/05/17 09:12:21;;;;;;;4.30;2.40;;;;;;;34.64;23.81;100575.65;108134;1287;21994;-62
2023/05/17 09:14:47;;;;;;;6.60;2.50;;;;;;;34.83;24.36;100580.64;108173;1287;22038;-60
2023/05/17 09:17:17;;;;;;;4.70;2.10;;;;;;;35.08;23.64;100577.73;108148;1287;22386;-60
2023/05/17 09:19:44;;;;;;;7.70;2.60;;;;;;;35.19;23.35;100573.13;108123;1287;22127;-59
2023/05/17 09:22:14;;;;;;;5.80;2.20;;;;;;;35.30;23.67;100573.33;108137;1288;21989;-61
2023/05/17 09:24:41;;;;;;;3.60;1.90;;;;;;;35.36;22.29;100577.77;108124;1287;21994;-60
2023/05/17 09:27:07;;;;;;;3.80;2.00;;;;;;;35.27;22.26;100576.22;108102;1287;21994;-60
2023/05/17 09:29:33;;;;;;;4.00;2.40;;;;;;;35.21;23.00;100574.73;108202;1284;21996;-61
2023/05/17 09:32:19;;;;;;;10.00;2.40;;;;;;;35.33;23.45;100575.05;108106;1287;21996;-59
2023/05/17 09:34:45;;;;;;;7.10;2.20;;;;;;;35.48;23.44;100569.17;108072;1287;21963;-60
2023/05/17 09:37:13;;;;;;;5.80;2.00;;;;;;;35.71;23.12;100567.08;108075;1287;21987;-61
2023/05/17 09:39:39;;;;;;;4.80;2.10;;;;;;;35.95;23.42;100557.65;108136;1288;21992;-59
2023/05/17 09:42:05;;;;;;;3.80;2.30;;;;;;;36.29;23.87;100550.26;108093;1288;22012;-62
2023/05/17 09:44:47;;;;;;;4.40;2.00;;;;;;;36.63;22.78;100548.91;107968;1287;21986;-60
2023/05/17 09:47:23;;;;;;;4.80;2.40;;;;;;;36.80;22.25;100547.79;108110;1288;22650;-61
2023/05/17 09:49:49;;;;;;;4.60;2.30;;;;;;;36.81;21.47;100546.91;108096;1287;21990;-59
2023/05/17 09:52:19;;;;;;;5.60;2.00;;;;;;;36.72;21.34;100542.71;108142;1287;21996;-59
2023/05/17 09:54:55;;;;;;;5.50;2.20;;;;;;;36.78;22.01;100537.63;108106;1287;22001;-62
2023/05/17 09:57:21;;;;;;;5.30;2.10;;;;;;;36.98;21.46;100541.98;108095;1287;21991;-59
2023/05/17 09:59:47;;;;;;;4.40;2.20;;;;;;;36.99;21.99;100542.17;108178;1287;21996;-58
2023/05/17 10:02:23;;;;;;;4.20;1.80;;;;;;;37.22;22.24;100542.85;108133;1287;21986;-63
2023/05/17 10:04:50;;;;;;;4.40;1.80;;;;;;;37.46;21.44;100538.53;108143;1287;24305;-61
2023/05/17 10:07:18;;;;;;;6.40;1.70;;;;;;;37.67;22.11;100534.09;107928;1287;21987;-60
2023/05/17 10:09:48;;;;;;;5.00;1.90;;;;;;;37.91;21.77;100538.58;108127;1284;23708;-62
2023/05/17 10:12:16;;;;;;;4.80;2.10;;;;;;;38.10;21.95;100538.45;107941;1287;22456;-62
2023/05/17 10:14:41;;;;;;;4.00;1.90;;;;;;;38.25;21.77;100532.27;108154;1287;21992;-61
2023/05/17 10:17:07;;;;;;;4.10;2.00;;;;;;;38.26;20.31;100529.96;108052;1287;22099;-60
2023/05/17 10:19:33;;;;;;;3.70;2.00;;;;;;;37.98;19.50;100530.75;107787;1287;22091;-61
2023/05/17 10:21:59;;;;;;;4.50;2.40;;;;;;;37.58;19.88;100531.56;107895;1287;21989;-62
2023/05/17 10:24:25;;;;;;;4.90;1.90;;;;;;;37.20;20.83;100533.58;107886;1285;22002;-61
2023/05/17 10:26:51;;;;;;;3.60;1.90;;;;;;;37.04;20.98;100527.48;107847;1287;21987;-62
2023/05/17 10:29:19;;;;;;;9.10;2.10;;;;;;;36.97;20.07;100528.20;108068;1287;21995;-60
2023/05/17 10:31:45;;;;;;;3.70;2.30;;;;;;;36.74;20.17;100525.87;108116;1287;21986;-61
2023/05/17 10:34:10;;;;;;;6.40;2.10;;;;;;;36.48;20.79;100527.12;107762;1288;21999;-59
2023/05/17 10:36:36;;;;;;;5.60;2.20;;;;;;;36.33;20.73;100523.27;108038;1287;21989;-63
2023/05/17 10:39:02;;;;;;;4.10;2.30;;;;;;;36.10;20.69;100523.05;108108;1287;21990;-62
2023/05/17 10:41:31;;;;;;;8.00;1.80;;;;;;;35.94;21.23;100519.70;107871;1287;21988;-62
2023/05/17 10:43:56;;;;;;;4.00;2.10;;;;;;;35.85;21.52;100521.95;107957;1287;21989;-59
2023/05/17 10:46:22;;;;;;;3.30;1.90;;;;;;;35.78;21.61;100518.05;107854;1288;21983;-61
2023/05/17 10:48:52;;;;;;;3.10;2.00;;;;;;;35.65;21.30;100520.64;108050;1287;21998;-62
2023/05/17 10:51:44;;;;;;;4.90;1.80;;;;;;;35.54;21.64;100519.31;108064;1287;22080;-60
2023/05/17 10:54:17;;;;;;;3.50;1.90;;;;;;;35.76;22.20;100513.52;108079;1287;21990;-61
2023/05/17 10:56:50;;;;;;;3.30;2.00;;;;;;;36.23;22.49;100510.90;108148;1287;22027;-61
2023/05/17 10:59:26;;;;;;;8.90;1.90;;;;;;;36.79;22.41;100507.13;108133;1287;22048;-60
2023/05/17 11:02:06;;;;;;;4.90;2.00;;;;;;;37.31;22.22;100508.82;108227;1287;21991;-61
2023/05/17 11:04:36;;;;;;;19.70;2.70;;;;;;;37.72;22.08;100507.52;108127;1287;21997;-59
2023/05/17 11:07:18;;;;;;;;;;;;;;;38.09;22.10;100506.72;108258;1287;21968;-60
2023/05/17 11:10:10;;;;;;;5.70;2.30;;;;;;;38.38;20.75;100504.45;108193;1283;21991;-59
2023/05/17 11:12:40;;;;;;;6.50;2.20;;;;;;;38.54;21.39;100504.66;107996;1287;21992;-61
2023/05/17 11:15:10;;;;;;;5.00;2.30;;;;;;;38.92;21.68;100502.92;108084;1287;21991;-62
2023/05/17 11:17:42;;;;;;;;;;;;;;;39.13;20.27;100501.25;108100;1287;21973;-62